createdAt,value
2023-06-14T00:00:20.137Z,54.86
2023-06-14T00:00:50.137Z,54.86
2023-06-14T00:01:20.123Z,54.97
2023-06-14T00:01:50.142Z,54.86
2023-06-14T00:02:20.205Z,55.17
2023-06-14T00:02:50.278Z,55.60
2023-06-14T00:03:20.157Z,55.80
2023-06-14T00:03:50.127Z,55.70
2023-06-14T00:04:20.104Z,55.80
2023-06-14T00:04:50.118Z,56.10
2023-06-14T00:05:20.077Z,56.31
2023-06-14T00:05:50.085Z,56.31
2023-06-14T00:06:20.072Z,56.61
2023-06-14T00:06:50.065Z,56.41
2023-06-14T00:07:20.066Z,56.31
2023-06-14T00:07:50.067Z,56.41
2023-06-14T00:08:20.090Z,56.21
2023-06-14T00:08:50.173Z,56.51
2023-06-14T00:09:20.293Z,56.61
2023-06-14T00:09:50.032Z,56.51
2023-06-14T00:10:20.132Z,56.41
2023-06-14T00:10:50.031Z,56.61
2023-06-14T00:11:20.009Z,56.71
2023-06-14T00:11:50.009Z,56.61
2023-06-14T00:12:20.040Z,56.61
2023-06-14T00:12:50.003Z,56.41
2023-06-14T00:13:20.005Z,56.41
2023-06-14T00:13:50.001Z,56.41
2023-06-14T00:14:20.003Z,56.61
2023-06-14T00:14:51.034Z,56.61
2023-06-14T00:15:19.977Z,56.31
2023-06-14T00:15:49.969Z,56.31
2023-06-14T00:16:19.995Z,56.51
2023-06-14T00:16:49.990Z,56.31
2023-06-14T00:17:19.978Z,56.01
2023-06-14T00:17:49.983Z,55.90
2023-06-14T00:18:19.935Z,55.80
2023-06-14T00:18:49.958Z,55.80
2023-06-14T00:19:19.937Z,55.80
2023-06-14T00:19:50.023Z,56.31
2023-06-14T00:20:20.125Z,56.10
2023-06-14T00:20:49.941Z,56.10
2023-06-14T00:21:19.904Z,56.21
2023-06-14T00:21:49.910Z,56.54
2023-06-14T00:22:19.911Z,57.55
2023-06-14T00:22:50.023Z,57.45
2023-06-14T00:23:20.074Z,57.48
2023-06-14T00:23:49.921Z,57.58
2023-06-14T00:24:19.946Z,57.78
2023-06-14T00:24:49.909Z,58.09
2023-06-14T00:25:28.831Z,58.29
2023-06-14T00:25:49.854Z,58.62
2023-06-14T00:26:19.884Z,58.72
2023-06-14T00:26:49.882Z,59.03
2023-06-14T00:27:19.842Z,59.26
2023-06-14T00:27:49.835Z,59.56
2023-06-14T00:28:19.845Z,59.66
2023-06-14T00:28:49.834Z,59.77
2023-06-14T00:29:19.821Z,59.86
2023-06-14T00:29:49.855Z,59.97
2023-06-14T00:30:19.843Z,59.97
2023-06-14T00:30:49.801Z,59.97
2023-06-14T00:31:19.812Z,59.97
2023-06-14T00:31:49.817Z,60.07
2023-06-14T00:32:19.874Z,60.07
2023-06-14T00:32:49.955Z,60.17
2023-06-14T00:33:19.814Z,60.27
2023-06-14T00:33:49.822Z,60.27
2023-06-14T00:34:19.787Z,60.37
2023-06-14T00:34:49.757Z,60.17
2023-06-14T00:35:19.818Z,60.27
2023-06-14T00:35:49.760Z,60.07
2023-06-14T00:36:19.745Z,60.30
2023-06-14T00:36:49.862Z,60.50
2023-06-14T00:37:19.949Z,60.81
2023-06-14T00:37:49.740Z,61.01
2023-06-14T00:38:19.733Z,61.11
2023-06-14T00:38:49.719Z,61.11
2023-06-14T00:39:19.780Z,60.91
2023-06-14T00:39:49.725Z,60.91
2023-06-14T00:40:19.745Z,61.01
2023-06-14T00:40:49.759Z,61.24
2023-06-14T00:41:19.706Z,61.55
2023-06-14T00:41:49.684Z,61.75
2023-06-14T00:42:19.682Z,61.95
2023-06-14T00:42:49.676Z,62.05
2023-06-14T00:43:19.671Z,61.95
2023-06-14T00:43:49.672Z,62.05
2023-06-14T00:44:19.693Z,61.85
2023-06-14T00:44:49.711Z,61.95
2023-06-14T00:45:19.657Z,62.05
2023-06-14T00:45:49.662Z,62.26
2023-06-14T00:46:19.668Z,62.05
2023-06-14T00:46:49.737Z,62.16
2023-06-14T00:47:19.637Z,62.46
2023-06-14T00:47:49.683Z,62.29
2023-06-14T00:48:19.636Z,62.36
2023-06-14T00:48:49.622Z,62.36
2023-06-14T00:49:19.605Z,62.26
2023-06-14T00:49:49.608Z,62.26
2023-06-14T00:50:19.783Z,62.46
2023-06-14T00:50:49.740Z,62.26
2023-06-14T00:51:19.804Z,62.36
2023-06-14T00:51:49.597Z,62.36
2023-06-14T00:52:19.575Z,62.46
2023-06-14T00:52:49.586Z,62.26
2023-06-14T00:53:19.581Z,62.26
2023-06-14T00:53:49.559Z,61.95
2023-06-14T00:54:19.566Z,62.05
2023-06-14T00:54:49.590Z,61.95
2023-06-14T00:55:19.703Z,61.93
2023-06-14T00:55:49.551Z,62.02
2023-06-14T00:56:19.547Z,62.13
2023-06-14T00:56:49.529Z,62.13
2023-06-14T00:57:19.531Z,62.02
2023-06-14T00:57:49.536Z,61.93
2023-06-14T00:58:19.551Z,62.02
2023-06-14T00:58:49.511Z,61.82
2023-06-14T00:59:19.507Z,61.82
2023-06-14T00:59:49.541Z,61.72
2023-06-14T01:00:19.555Z,61.72
2023-06-14T01:00:49.508Z,61.72
2023-06-14T01:01:19.499Z,61.82
2023-06-14T01:01:49.509Z,61.93
2023-06-14T01:02:19.474Z,61.93
2023-06-14T01:02:49.559Z,61.82
2023-06-14T01:03:19.553Z,61.62
2023-06-14T01:03:49.558Z,61.82
2023-06-14T01:04:19.475Z,61.62
2023-06-14T01:04:49.616Z,61.62
2023-06-14T01:05:19.652Z,61.62
2023-06-14T01:05:49.449Z,61.72
2023-06-14T01:06:19.442Z,61.52
2023-06-14T01:06:49.443Z,61.62
2023-06-14T01:07:19.443Z,61.72
2023-06-14T01:07:49.427Z,61.62
2023-06-14T01:08:19.414Z,61.41
2023-06-14T01:08:49.399Z,61.52
2023-06-14T01:09:19.407Z,61.52
2023-06-14T01:09:49.452Z,61.62
2023-06-14T01:10:19.431Z,61.62
2023-06-14T01:10:49.388Z,61.52
2023-06-14T01:11:19.378Z,61.82
2023-06-14T01:11:49.410Z,61.62
2023-06-14T01:12:19.413Z,61.62
2023-06-14T01:12:49.375Z,61.82
2023-06-14T01:13:19.363Z,61.82
2023-06-14T01:13:49.390Z,61.62
2023-06-14T01:14:19.353Z,61.41
2023-06-14T01:14:49.461Z,61.32
2023-06-14T01:15:20.113Z,61.32
2023-06-14T01:15:49.326Z,61.32
2023-06-14T01:16:19.340Z,61.21
2023-06-14T01:16:49.382Z,61.21
2023-06-14T01:17:19.314Z,61.32
2023-06-14T01:17:49.361Z,61.32
2023-06-14T01:18:19.459Z,61.41
2023-06-14T01:18:49.461Z,61.21
2023-06-14T01:19:19.476Z,61.21
2023-06-14T01:19:49.334Z,61.01
2023-06-14T01:20:19.314Z,61.01
2023-06-14T01:20:49.276Z,61.11
2023-06-14T01:21:19.284Z,61.32
2023-06-14T01:21:49.286Z,61.11
2023-06-14T01:22:19.287Z,61.21
2023-06-14T01:22:49.269Z,61.32
2023-06-14T01:23:19.272Z,61.21
2023-06-14T01:23:49.255Z,61.01
2023-06-14T01:24:19.293Z,61.01
2023-06-14T01:24:49.235Z,61.11
2023-06-14T01:25:19.269Z,61.11
2023-06-14T01:25:49.236Z,61.21
2023-06-14T01:26:19.219Z,61.21
2023-06-14T01:26:49.206Z,61.32
2023-06-14T01:27:19.207Z,61.32
2023-06-14T01:27:49.228Z,61.55
2023-06-14T01:28:19.216Z,61.65
2023-06-14T01:28:49.196Z,61.75
2023-06-14T01:29:19.196Z,61.85
2023-06-14T01:29:49.185Z,61.95
2023-06-14T01:30:19.189Z,61.95
2023-06-14T01:30:49.208Z,62.16
2023-06-14T01:31:19.177Z,62.36
2023-06-14T01:31:49.179Z,62.59
2023-06-14T01:32:19.177Z,62.70
2023-06-14T01:32:49.323Z,62.70
2023-06-14T01:33:19.353Z,62.70
2023-06-14T01:33:49.150Z,62.70
2023-06-14T01:34:19.145Z,62.70
2023-06-14T01:34:49.171Z,63.00
2023-06-14T01:35:19.353Z,63.00
2023-06-14T01:35:49.233Z,62.90
2023-06-14T01:36:19.123Z,62.79
2023-06-14T01:36:49.142Z,63.00
2023-06-14T01:37:19.118Z,62.90
2023-06-14T01:37:49.100Z,63.20
2023-06-14T01:38:19.084Z,63.00
2023-06-14T01:38:49.092Z,62.79
2023-06-14T01:39:19.113Z,63.10
2023-06-14T01:39:49.070Z,63.20
2023-06-14T01:40:19.119Z,63.20
2023-06-14T01:40:49.596Z,63.10
2023-06-14T01:41:19.070Z,63.00
2023-06-14T01:41:49.088Z,63.10
2023-06-14T01:42:19.057Z,62.90
2023-06-14T01:42:49.059Z,62.66
2023-06-14T01:43:19.036Z,62.46
2023-06-14T01:43:49.053Z,62.36
2023-06-14T01:44:19.041Z,62.46
2023-06-14T01:44:49.081Z,62.56
2023-06-14T01:45:19.017Z,62.66
2023-06-14T01:45:49.077Z,62.66
2023-06-14T01:46:19.034Z,62.56
2023-06-14T01:46:49.171Z,62.56
2023-06-14T01:47:19.205Z,62.56
2023-06-14T01:47:49.032Z,62.56
2023-06-14T01:48:18.995Z,62.26
2023-06-14T01:48:49.109Z,62.26
2023-06-14T01:49:18.977Z,62.26
2023-06-14T01:49:49.075Z,62.26
2023-06-14T01:50:18.975Z,62.05
2023-06-14T01:50:48.953Z,62.05
2023-06-14T01:51:18.964Z,61.95
2023-06-14T01:51:48.948Z,61.95
2023-06-14T01:52:19.035Z,62.16
2023-06-14T01:52:48.940Z,62.16
2023-06-14T01:53:18.936Z,62.05
2023-06-14T01:53:48.927Z,61.95
2023-06-14T01:54:18.951Z,61.95
2023-06-14T01:54:48.943Z,62.46
2023-06-14T01:55:18.960Z,62.36
2023-06-14T01:55:48.907Z,62.26
2023-06-14T01:56:18.968Z,62.05
2023-06-14T01:56:48.912Z,62.16
2023-06-14T01:57:18.906Z,62.29
2023-06-14T01:57:48.917Z,62.29
2023-06-14T01:58:18.885Z,62.39
2023-06-14T01:58:48.909Z,62.49
2023-06-14T01:59:18.884Z,62.18
2023-06-14T01:59:48.872Z,62.29
2023-06-14T02:00:18.869Z,62.29
2023-06-14T02:00:48.977Z,62.39
2023-06-14T02:01:19.209Z,62.29
2023-06-14T02:01:48.960Z,62.29
2023-06-14T02:02:18.846Z,62.18
2023-06-14T02:02:48.860Z,62.49
2023-06-14T02:03:18.847Z,62.39
2023-06-14T02:03:48.843Z,62.39
2023-06-14T02:04:18.841Z,62.39
2023-06-14T02:04:48.841Z,62.39
2023-06-14T02:05:18.844Z,62.29
2023-06-14T02:05:48.904Z,62.08
2023-06-14T02:06:18.807Z,62.18
2023-06-14T02:06:48.852Z,62.39
2023-06-14T02:07:18.852Z,62.39
2023-06-14T02:07:48.775Z,62.29
2023-06-14T02:08:18.777Z,62.49
2023-06-14T02:08:48.811Z,62.29
2023-06-14T02:09:18.778Z,62.18
2023-06-14T02:09:48.762Z,62.29
2023-06-14T02:10:18.757Z,62.18
2023-06-14T02:10:48.772Z,62.70
2023-06-14T02:11:18.779Z,62.49
2023-06-14T02:11:48.737Z,62.72
2023-06-14T02:12:18.909Z,62.72
2023-06-14T02:12:48.746Z,62.72
2023-06-14T02:13:18.769Z,62.72
2023-06-14T02:13:48.731Z,62.32
2023-06-14T02:14:18.706Z,62.21
2023-06-14T02:14:48.820Z,62.72
2023-06-14T02:15:18.920Z,62.72
2023-06-14T02:15:48.730Z,63.02
2023-06-14T02:16:18.890Z,63.13
2023-06-14T02:16:48.693Z,63.23
2023-06-14T02:17:18.778Z,63.33
2023-06-14T02:17:48.739Z,63.33
2023-06-14T02:18:18.703Z,63.33
2023-06-14T02:18:48.620Z,63.33
2023-06-14T02:19:18.714Z,63.43
2023-06-14T02:19:48.665Z,63.54
2023-06-14T02:20:18.841Z,63.77
2023-06-14T02:20:48.654Z,63.77
2023-06-14T02:21:18.611Z,63.87
2023-06-14T02:21:48.597Z,63.67
2023-06-14T02:22:18.629Z,63.87
2023-06-14T02:22:48.583Z,63.87
2023-06-14T02:23:18.565Z,63.97
2023-06-14T02:23:48.597Z,64.18
2023-06-14T02:24:18.590Z,64.18
2023-06-14T02:24:51.227Z,64.18
2023-06-14T02:25:18.580Z,64.38
2023-06-14T02:25:48.596Z,64.28
2023-06-14T02:26:18.583Z,64.28
2023-06-14T02:26:48.623Z,64.18
2023-06-14T02:27:18.631Z,64.07
2023-06-14T02:27:48.548Z,64.07
2023-06-14T02:28:18.516Z,64.07
2023-06-14T02:28:48.659Z,64.07
2023-06-14T02:29:18.697Z,64.18
2023-06-14T02:29:48.520Z,64.18
2023-06-14T02:30:18.730Z,64.38
2023-06-14T02:30:48.493Z,64.48
2023-06-14T02:31:18.536Z,64.38
2023-06-14T02:31:48.589Z,64.28
2023-06-14T02:32:18.545Z,64.07
2023-06-14T02:32:48.548Z,63.97
2023-06-14T02:33:18.463Z,63.77
2023-06-14T02:33:48.454Z,63.77
2023-06-14T02:34:18.452Z,63.87
2023-06-14T02:34:48.440Z,63.87
2023-06-14T02:35:19.153Z,63.97
2023-06-14T02:35:48.435Z,63.87
2023-06-14T02:36:18.422Z,63.77
2023-06-14T02:36:48.434Z,63.77
2023-06-14T02:37:18.449Z,63.57
2023-06-14T02:37:48.420Z,63.46
2023-06-14T02:38:18.432Z,63.57
2023-06-14T02:38:48.402Z,63.77
2023-06-14T02:39:18.420Z,64.31
2023-06-14T02:39:48.405Z,64.81
2023-06-14T02:40:18.588Z,65.12
2023-06-14T02:40:48.400Z,65.53
2023-06-14T02:41:18.374Z,65.43
2023-06-14T02:41:48.395Z,65.53
2023-06-14T02:42:18.367Z,65.66
2023-06-14T02:42:48.496Z,65.77
2023-06-14T02:43:18.582Z,65.77
2023-06-14T02:43:48.362Z,65.86
2023-06-14T02:44:18.362Z,65.86
2023-06-14T02:44:48.345Z,66.17
2023-06-14T02:45:18.377Z,66.07
2023-06-14T02:45:48.329Z,66.27
2023-06-14T02:46:18.328Z,66.17
2023-06-14T02:46:48.334Z,66.38
2023-06-14T02:47:18.385Z,66.47
2023-06-14T02:47:48.466Z,66.58
2023-06-14T02:48:18.414Z,66.58
2023-06-14T02:48:48.330Z,66.91
2023-06-14T02:49:18.290Z,67.12
2023-06-14T02:49:48.294Z,67.32
2023-06-14T02:50:18.310Z,67.52
2023-06-14T02:50:48.316Z,67.73
2023-06-14T02:51:18.276Z,67.96
2023-06-14T02:51:48.265Z,68.07
2023-06-14T02:52:18.313Z,68.07
2023-06-14T02:52:48.258Z,68.17
2023-06-14T02:53:18.270Z,67.96
2023-06-14T02:53:48.243Z,68.07
2023-06-14T02:54:18.244Z,68.37
2023-06-14T02:54:48.251Z,68.37
2023-06-14T02:55:18.227Z,68.48
2023-06-14T02:55:48.227Z,68.57
2023-06-14T02:56:18.219Z,68.44
2023-06-14T02:56:48.341Z,68.34
2023-06-14T02:57:18.446Z,68.34
2023-06-14T02:57:48.201Z,68.13
2023-06-14T02:58:18.200Z,68.24
2023-06-14T02:58:48.193Z,68.13
2023-06-14T02:59:18.190Z,68.04
2023-06-14T02:59:48.176Z,67.93
2023-06-14T03:00:18.568Z,67.83
2023-06-14T03:00:48.198Z,67.83
2023-06-14T03:01:18.330Z,67.93
2023-06-14T03:01:48.161Z,67.93
2023-06-14T03:02:18.159Z,68.13
2023-06-14T03:02:48.287Z,67.93
2023-06-14T03:03:18.192Z,68.44
2023-06-14T03:03:48.260Z,68.13
2023-06-14T03:04:18.131Z,67.93
2023-06-14T03:04:48.123Z,68.13
2023-06-14T03:05:18.112Z,68.04
2023-06-14T03:05:48.119Z,68.57
2023-06-14T03:06:18.145Z,68.78
2023-06-14T03:06:48.114Z,69.19
2023-06-14T03:07:18.099Z,69.32
2023-06-14T03:07:48.145Z,69.42
2023-06-14T03:08:18.167Z,69.53
2023-06-14T03:08:48.076Z,69.63
2023-06-14T03:09:18.077Z,69.63
2023-06-14T03:09:48.074Z,69.73
2023-06-14T03:10:18.140Z,69.63
2023-06-14T03:10:48.199Z,69.83
2023-06-14T03:11:18.270Z,69.93
2023-06-14T03:11:48.047Z,69.93
2023-06-14T03:12:18.040Z,70.04
2023-06-14T03:12:48.079Z,70.04
2023-06-14T03:13:18.039Z,70.04
2023-06-14T03:13:48.036Z,70.14
2023-06-14T03:14:18.016Z,70.04
2023-06-14T03:14:48.128Z,70.14
2023-06-14T03:15:18.014Z,70.04
2023-06-14T03:15:47.998Z,69.93
2023-06-14T03:16:18.020Z,69.73
2023-06-14T03:16:48.043Z,69.83
2023-06-14T03:17:17.982Z,69.83
2023-06-14T03:17:48.011Z,69.63
2023-06-14T03:18:18.018Z,69.63
2023-06-14T03:18:47.976Z,69.32
2023-06-14T03:19:18.012Z,69.49
2023-06-14T03:19:47.986Z,69.39
2023-06-14T03:20:18.241Z,69.39
2023-06-14T03:20:47.959Z,69.19
2023-06-14T03:21:17.948Z,69.09
2023-06-14T03:21:47.942Z,69.09
2023-06-14T03:22:17.951Z,69.19
2023-06-14T03:22:47.959Z,69.32
2023-06-14T03:23:17.916Z,69.32
2023-06-14T03:23:47.955Z,69.42
2023-06-14T03:24:17.939Z,69.42
2023-06-14T03:24:48.118Z,69.53
2023-06-14T03:25:18.092Z,69.63
2023-06-14T03:25:47.898Z,69.63
2023-06-14T03:26:17.922Z,69.53
2023-06-14T03:26:47.902Z,69.63
2023-06-14T03:27:17.878Z,69.73
2023-06-14T03:27:47.903Z,69.83
2023-06-14T03:28:17.867Z,69.73
2023-06-14T03:28:47.867Z,69.73
2023-06-14T03:29:17.862Z,69.53
2023-06-14T03:29:47.882Z,69.73
2023-06-14T03:30:18.085Z,69.83
2023-06-14T03:30:47.888Z,70.27
2023-06-14T03:31:17.851Z,70.48
2023-06-14T03:31:47.832Z,70.37
2023-06-14T03:32:17.819Z,70.48
2023-06-14T03:32:47.842Z,70.57
2023-06-14T03:33:17.875Z,70.68
2023-06-14T03:33:47.808Z,70.48
2023-06-14T03:34:17.797Z,70.57
2023-06-14T03:34:47.838Z,70.57
2023-06-14T03:35:17.798Z,70.78
2023-06-14T03:35:47.788Z,70.89
2023-06-14T03:36:17.789Z,70.89
2023-06-14T03:36:47.773Z,70.98
2023-06-14T03:37:17.782Z,70.98
2023-06-14T03:37:47.752Z,70.89
2023-06-14T03:38:17.753Z,70.89
2023-06-14T03:38:47.904Z,70.78
2023-06-14T03:39:17.933Z,70.98
2023-06-14T03:39:47.831Z,70.89
2023-06-14T03:40:17.861Z,70.68
2023-06-14T03:40:47.763Z,70.89
2023-06-14T03:41:17.743Z,70.85
2023-06-14T03:41:47.724Z,70.54
2023-06-14T03:42:17.710Z,70.44
2023-06-14T03:42:47.705Z,70.34
2023-06-14T03:43:17.696Z,70.34
2023-06-14T03:43:47.734Z,70.34
2023-06-14T03:44:17.706Z,70.41
2023-06-14T03:44:47.692Z,70.21
2023-06-14T03:45:17.694Z,70.10
2023-06-14T03:45:47.681Z,70.21
2023-06-14T03:46:17.680Z,70.34
2023-06-14T03:46:47.716Z,70.44
2023-06-14T03:47:17.716Z,70.44
2023-06-14T03:47:47.729Z,70.65
2023-06-14T03:48:17.692Z,70.85
2023-06-14T03:48:47.686Z,70.75
2023-06-14T03:49:17.635Z,70.85
2023-06-14T03:49:47.655Z,70.65
2023-06-14T03:50:17.990Z,70.65
2023-06-14T03:50:47.615Z,70.65
2023-06-14T03:51:17.632Z,70.54
2023-06-14T03:51:47.623Z,70.61
2023-06-14T03:52:17.603Z,70.41
2023-06-14T03:52:47.723Z,70.41
2023-06-14T03:53:17.787Z,70.31
2023-06-14T03:55:25.554Z,70.31
2023-06-14T03:55:59.126Z,70.10
2023-06-14T03:56:04.530Z,70.00
2023-06-14T03:56:36.554Z,70.21
2023-06-14T03:57:04.511Z,70.31
2023-06-14T03:57:34.499Z,70.10
2023-06-14T03:58:04.584Z,70.21
2023-06-14T03:58:34.479Z,70.21
2023-06-14T03:59:04.507Z,70.10
2023-06-14T03:59:34.485Z,70.10
2023-06-14T04:00:04.482Z,70.10
2023-06-14T04:00:34.489Z,70.31
2023-06-14T04:01:04.474Z,70.41
2023-06-14T04:01:34.466Z,70.21
2023-06-14T04:02:04.447Z,70.00
2023-06-14T04:02:34.494Z,70.07
2023-06-14T04:03:04.658Z,69.97
2023-06-14T04:03:34.588Z,69.87
2023-06-14T04:04:04.499Z,69.76
2023-06-14T04:04:34.478Z,69.76
2023-06-14T04:05:05.004Z,69.67
2023-06-14T04:05:34.472Z,69.56
2023-06-14T04:06:04.560Z,69.56
2023-06-14T04:06:34.394Z,69.67
2023-06-14T04:07:04.509Z,69.87
2023-06-14T04:07:34.576Z,69.97
2023-06-14T04:08:04.389Z,69.97
2023-06-14T04:08:34.391Z,69.97
2023-06-14T04:09:04.440Z,70.17
2023-06-14T04:09:34.390Z,70.17
2023-06-14T04:10:04.370Z,70.07
2023-06-14T04:10:34.355Z,70.07
2023-06-14T04:11:04.357Z,69.87
2023-06-14T04:11:34.352Z,69.76
2023-06-14T04:12:04.338Z,69.53
2023-06-14T04:12:34.346Z,69.43
2023-06-14T04:13:04.385Z,69.23
2023-06-14T04:13:34.321Z,69.12
2023-06-14T04:14:04.357Z,69.02
2023-06-14T04:14:34.345Z,69.02
2023-06-14T04:15:15.820Z,69.12
2023-06-14T04:15:34.397Z,69.32
2023-06-14T04:16:04.366Z,69.12
2023-06-14T04:16:34.324Z,68.92
2023-06-14T04:17:04.402Z,68.82
2023-06-14T04:17:34.303Z,68.71
2023-06-14T04:18:04.294Z,68.82
2023-06-14T04:18:34.294Z,68.82
2023-06-14T04:19:04.277Z,68.71
2023-06-14T04:19:34.259Z,68.62
2023-06-14T04:20:04.243Z,68.31
2023-06-14T04:20:34.281Z,68.41
2023-06-14T04:21:04.417Z,68.41
2023-06-14T04:21:34.432Z,68.48
2023-06-14T04:22:04.229Z,68.27
2023-06-14T04:22:34.222Z,68.27
2023-06-14T04:23:04.248Z,68.18
2023-06-14T04:23:34.209Z,68.07
2023-06-14T04:24:04.317Z,68.18
2023-06-14T04:24:34.225Z,67.97
2023-06-14T04:25:16.465Z,67.97
2023-06-14T04:25:34.189Z,68.07
2023-06-14T04:26:04.190Z,67.97
2023-06-14T04:26:34.182Z,67.77
2023-06-14T04:27:04.227Z,67.57
2023-06-14T04:27:34.172Z,67.66
2023-06-14T04:28:04.163Z,67.77
2023-06-14T04:28:34.159Z,67.97
2023-06-14T04:29:04.159Z,67.87
2023-06-14T04:29:34.207Z,67.57
2023-06-14T04:30:04.144Z,67.43
2023-06-14T04:30:34.150Z,67.43
2023-06-14T04:31:04.131Z,67.33
2023-06-14T04:31:34.125Z,67.13
2023-06-14T04:32:04.117Z,67.02
2023-06-14T04:32:35.027Z,67.02
2023-06-14T04:33:04.261Z,67.02
2023-06-14T04:33:34.259Z,67.02
2023-06-14T04:34:04.119Z,67.02
2023-06-14T04:34:34.143Z,67.53
2023-06-14T04:35:04.211Z,67.33
2023-06-14T04:35:34.277Z,67.02
2023-06-14T04:36:04.098Z,67.53
2023-06-14T04:36:34.075Z,67.36
2023-06-14T04:37:04.089Z,67.77
2023-06-14T04:37:34.073Z,67.77
2023-06-14T04:38:04.065Z,67.77
2023-06-14T04:38:34.065Z,67.97
2023-06-14T04:39:04.049Z,68.27
2023-06-14T04:39:34.100Z,68.07
2023-06-14T04:40:04.043Z,67.87
2023-06-14T04:40:34.023Z,67.66
2023-06-14T04:41:04.026Z,67.57
2023-06-14T04:41:34.016Z,67.66
2023-06-14T04:42:04.022Z,67.57
2023-06-14T04:42:34.007Z,67.57
2023-06-14T04:43:04.010Z,67.66
2023-06-14T04:43:33.994Z,67.57
2023-06-14T04:44:04.006Z,67.57
2023-06-14T04:44:34.021Z,67.57
2023-06-14T04:45:03.976Z,67.57
2023-06-14T04:45:33.979Z,67.57
2023-06-14T04:46:04.022Z,67.66
2023-06-14T04:46:33.979Z,67.87
2023-06-14T04:47:03.958Z,68.04
2023-06-14T04:47:33.989Z,68.04
2023-06-14T04:48:03.973Z,67.74
2023-06-14T04:48:33.944Z,67.53
2023-06-14T04:49:04.086Z,67.33
2023-06-14T04:49:34.248Z,67.22
2023-06-14T04:50:03.923Z,67.33
2023-06-14T04:50:33.916Z,67.33
2023-06-14T04:51:03.950Z,67.53
2023-06-14T04:51:33.910Z,67.63
2023-06-14T04:52:03.917Z,67.53
2023-06-14T04:52:33.915Z,67.74
2023-06-14T04:53:03.931Z,67.74
2023-06-14T04:53:33.892Z,67.53
2023-06-14T04:54:03.890Z,67.40
2023-06-14T04:54:33.901Z,67.40
2023-06-14T04:55:03.887Z,67.40
2023-06-14T04:55:33.862Z,67.10
2023-06-14T04:56:03.888Z,66.79
2023-06-14T04:56:33.901Z,66.82
2023-06-14T04:57:03.865Z,66.89
2023-06-14T04:57:33.845Z,66.92
2023-06-14T04:58:03.850Z,66.92
2023-06-14T04:58:33.865Z,67.02
2023-06-14T04:59:03.847Z,67.22
2023-06-14T04:59:33.865Z,67.19
2023-06-14T05:00:03.853Z,67.30
2023-06-14T05:00:33.816Z,67.40
2023-06-14T05:01:03.855Z,66.92
2023-06-14T05:01:33.917Z,66.92
2023-06-14T05:02:03.845Z,67.02
2023-06-14T05:02:33.930Z,66.72
2023-06-14T05:03:04.006Z,66.21
2023-06-14T05:03:33.995Z,66.31
2023-06-14T05:04:03.881Z,66.38
2023-06-14T05:04:33.776Z,66.38
2023-06-14T05:05:03.796Z,66.49
2023-06-14T05:05:33.773Z,66.69
2023-06-14T05:06:03.755Z,66.89
2023-06-14T05:06:33.806Z,67.30
2023-06-14T05:07:03.768Z,67.22
2023-06-14T05:07:33.787Z,67.22
2023-06-14T05:08:03.738Z,67.22
2023-06-14T05:08:33.730Z,67.33
2023-06-14T05:09:03.727Z,67.30
2023-06-14T05:09:33.721Z,67.19
2023-06-14T05:10:03.719Z,67.19
2023-06-14T05:10:33.705Z,67.10
2023-06-14T05:11:03.708Z,67.10
2023-06-14T05:11:33.747Z,67.10
2023-06-14T05:12:03.693Z,66.99
2023-06-14T05:12:33.688Z,66.89
2023-06-14T05:13:03.685Z,66.99
2023-06-14T05:13:33.679Z,66.99
2023-06-14T05:14:03.668Z,66.86
2023-06-14T05:14:33.692Z,66.86
2023-06-14T05:15:03.662Z,66.86
2023-06-14T05:15:33.669Z,66.86
2023-06-14T05:16:03.696Z,66.46
2023-06-14T05:16:33.673Z,66.25
2023-06-14T05:17:03.797Z,66.15
2023-06-14T05:17:33.859Z,66.05
2023-06-14T05:18:03.701Z,66.05
2023-06-14T05:18:33.622Z,66.15
2023-06-14T05:19:03.610Z,65.91
2023-06-14T05:19:33.643Z,65.61
2023-06-14T05:20:03.603Z,65.51
2023-06-14T05:20:33.598Z,65.61
2023-06-14T05:21:03.615Z,65.71
2023-06-14T05:21:34.949Z,65.41
2023-06-14T05:22:03.613Z,64.90
2023-06-14T05:22:33.586Z,65.10
2023-06-14T05:23:03.592Z,65.51
2023-06-14T05:23:33.602Z,65.71
2023-06-14T05:24:04.498Z,65.91
2023-06-14T05:24:33.566Z,66.12
2023-06-14T05:25:03.558Z,66.02
2023-06-14T05:25:33.556Z,66.12
2023-06-14T05:26:03.537Z,65.88
2023-06-14T05:26:33.528Z,65.48
2023-06-14T05:27:04.252Z,65.48
2023-06-14T05:27:33.563Z,65.41
2023-06-14T05:28:03.540Z,65.27
2023-06-14T05:28:33.558Z,65.51
2023-06-14T05:29:03.520Z,65.48
2023-06-14T05:29:33.528Z,65.99
2023-06-14T05:30:03.506Z,66.19
2023-06-14T05:30:33.519Z,66.19
2023-06-14T05:31:03.697Z,65.99
2023-06-14T05:31:33.699Z,65.78
2023-06-14T05:32:03.558Z,65.78
2023-06-14T05:32:33.496Z,65.78
2023-06-14T05:33:03.511Z,65.78
2023-06-14T05:33:33.600Z,65.88
2023-06-14T05:34:03.518Z,65.99
2023-06-14T05:34:33.455Z,65.99
2023-06-14T05:35:03.462Z,66.08
2023-06-14T05:35:33.483Z,65.78
2023-06-14T05:36:03.460Z,65.58
2023-06-14T05:36:33.581Z,65.58
2023-06-14T05:37:03.430Z,65.78
2023-06-14T05:37:33.427Z,65.78
2023-06-14T05:38:03.496Z,65.78
2023-06-14T05:38:33.477Z,65.99
2023-06-14T05:39:03.415Z,65.75
2023-06-14T05:39:33.433Z,65.85
2023-06-14T05:40:03.399Z,65.85
2023-06-14T05:40:33.398Z,65.95
2023-06-14T05:41:03.401Z,65.85
2023-06-14T05:41:33.376Z,65.45
2023-06-14T05:42:03.373Z,65.34
2023-06-14T05:42:33.380Z,65.34
2023-06-14T05:43:03.382Z,65.24
2023-06-14T05:43:33.381Z,64.94
2023-06-14T05:44:03.408Z,64.84
2023-06-14T05:44:33.352Z,64.53
2023-06-14T05:45:03.473Z,64.53
2023-06-14T05:45:33.533Z,64.53
2023-06-14T05:46:03.346Z,64.50
2023-06-14T05:46:33.343Z,64.53
2023-06-14T05:47:03.421Z,64.50
2023-06-14T05:47:33.347Z,64.64
2023-06-14T05:48:03.460Z,64.50
2023-06-14T05:48:33.481Z,64.70
2023-06-14T05:49:03.328Z,65.11
2023-06-14T05:49:33.313Z,64.81
2023-06-14T05:50:04.048Z,64.70
2023-06-14T05:50:33.293Z,64.70
2023-06-14T05:51:03.284Z,64.61
2023-06-14T05:51:33.274Z,64.61
2023-06-14T05:52:03.277Z,64.81
2023-06-14T05:52:33.276Z,64.61
2023-06-14T05:53:03.308Z,64.50
2023-06-14T05:53:33.279Z,64.37
2023-06-14T05:54:03.278Z,64.67
2023-06-14T05:54:33.279Z,64.58
2023-06-14T05:55:03.237Z,64.58
2023-06-14T05:55:33.230Z,64.47
2023-06-14T05:56:03.236Z,64.37
2023-06-14T05:56:33.233Z,64.37
2023-06-14T05:57:03.223Z,64.37
2023-06-14T05:57:33.240Z,64.37
2023-06-14T05:58:03.271Z,64.37
2023-06-14T05:58:33.202Z,64.37
2023-06-14T05:59:03.341Z,64.17
2023-06-14T05:59:33.396Z,63.96
2023-06-14T06:00:03.255Z,64.37
2023-06-14T06:00:33.189Z,64.58
2023-06-14T06:01:03.230Z,64.47
2023-06-14T06:01:33.166Z,64.78
2023-06-14T06:02:03.265Z,64.75
2023-06-14T06:02:33.330Z,64.54
2023-06-14T06:03:03.284Z,64.24
2023-06-14T06:03:33.217Z,64.14
2023-06-14T06:04:03.392Z,64.04
2023-06-14T06:04:33.294Z,64.14
2023-06-14T06:05:03.138Z,64.14
2023-06-14T06:05:33.306Z,64.24
2023-06-14T06:06:03.142Z,64.34
2023-06-14T06:06:33.116Z,64.24
2023-06-14T06:07:03.106Z,64.34
2023-06-14T06:07:33.509Z,64.24
2023-06-14T06:08:03.188Z,64.44
2023-06-14T06:08:33.184Z,64.04
2023-06-14T06:09:03.085Z,63.93
2023-06-14T06:09:33.086Z,63.02
2023-06-14T06:10:03.082Z,63.12
2023-06-14T06:10:33.143Z,63.12
2023-06-14T06:11:03.096Z,63.12
2023-06-14T06:11:44.214Z,63.43
2023-06-14T06:12:03.096Z,63.43
2023-06-14T06:12:33.067Z,63.53
2023-06-14T06:13:03.270Z,63.53
2023-06-14T06:13:33.252Z,63.53
2023-06-14T06:14:03.040Z,63.53
2023-06-14T06:14:33.062Z,63.63
2023-06-14T06:15:03.041Z,63.53
2023-06-14T06:15:33.026Z,63.73
2023-06-14T06:16:03.062Z,63.93
2023-06-14T06:16:33.062Z,64.01
2023-06-14T06:17:03.094Z,64.01
2023-06-14T06:17:46.266Z,64.01
2023-06-14T06:18:03.033Z,63.70
2023-06-14T06:18:33.138Z,63.70
2023-06-14T06:19:02.988Z,63.60
2023-06-14T06:19:32.999Z,63.40
2023-06-14T06:20:02.980Z,63.50
2023-06-14T06:20:32.969Z,63.50
2023-06-14T06:21:02.990Z,63.50
2023-06-14T06:21:32.956Z,63.50
2023-06-14T06:22:02.957Z,63.30
2023-06-14T06:22:32.974Z,63.09
2023-06-14T06:23:02.970Z,62.76
2023-06-14T06:23:32.984Z,62.15
2023-06-14T06:24:02.992Z,61.47
2023-06-14T06:24:33.018Z,61.75
2023-06-14T06:25:02.936Z,61.65
2023-06-14T06:25:33.022Z,61.44
2023-06-14T06:26:02.925Z,61.04
2023-06-14T06:26:32.932Z,60.94
2023-06-14T06:27:03.036Z,60.84
2023-06-14T06:27:33.112Z,60.84